Shonai Airport
RJSY : now visible

Airfield :











YOU CAN JOIN US ON...

 
LOGIN :

Register | Disclaimer

   EN    FR    IT 

 









Legend :    VFR   Marginal VFR   IFR   Intensive IFR   Very Intensive IFR
Visi :
Ceiling :
>= 8 km
>= 3000ft
5 to 8 km
1000 to 3000 ft
1500m to 5 km
500 to 1000 ft
800 to 1500m
200 to 500 ft
< 800m
< 200 ft
Symbols :   Thunderstorms  Fog  Heavy snow  Heavy precipitations  Wind > 20 kt






- Airport Elevation : 86 ft
- IATA code : SYO


RJSY - Shonai

CURRENT METAR :
  • 241200Z 14004KT 9999 FEW020 SCT030 BKN040 00/M02 Q1028

EXPIRED METARs :
  • 241100Z 14004KT 9999 -SHSN FEW015 SCT035 BKN045 00/M01 Q1028
  • 241000Z 15004KT 9999 -SHSN FEW010 BKN030 BKN040 00/M01 Q1029
  • 240900Z 12004KT 080V260 9999 -SHSN FEW010 SCT015 BKN020 01/M00 Q1029

TAF N/A
RJJJ FIR / Asia



MET'MAP, your aeronautical weather chart ! - Copyright ORBIFLY December 2007 - Disclaimer

ORBIFLY MET'MAP TEAM :

Programming & Development : Alexandra Zaïnal
Original concept : Baudouin d'Aumeries
Technical & hardware support : Manuel Goepfert
Assistance : Marc-Olivier Méhu




SOURCES & CREDITS :

   NOAA       Earth
Advisory